Time;durP1;ratioP1;P1;durP2;ratioP2;P2;SDS_P1;SDS_P2;PMS_P1;PMS_P2;Temp;Humidity;BMP_temperature;BMP_pressure;BME280_temperature;BME280_humidity;BME280_pressure;Samples;Min_cycle;Max_cycle;Signal;HPM_P1;HPM_P2
2021/09/15 00:00:54;;;;;;;7.00;6.43;;;;;;;;;;5056028;28;20625;-61
2021/09/15 00:03:19;;;;;;;7.70;7.10;;;;;;;;;;5073911;28;20224;-60
2021/09/15 00:05:44;;;;;;;8.13;7.43;;;;;;;;;;5073207;28;20299;-60
2021/09/15 00:08:11;;;;;;;11.23;9.30;;;;;;;;;;5073712;28;20221;-60
2021/09/15 00:10:36;;;;;;;8.97;7.87;;;;;;;;;;5073181;28;20228;-61
2021/09/15 00:13:02;;;;;;;11.63;7.50;;;;;;;;;;5074044;28;20516;-60
2021/09/15 00:15:27;;;;;;;8.10;7.40;;;;;;;;;;5073251;28;20307;-61
2021/09/15 00:17:52;;;;;;;10.90;7.87;;;;;;;;;;5073544;28;20220;-61
2021/09/15 00:20:17;;;;;;;8.70;7.93;;;;;;;;;;5073592;28;20236;-59
2021/09/15 00:22:43;;;;;;;8.80;8.10;;;;;;;;;;5073349;28;20255;-59
2021/09/15 00:25:08;;;;;;;8.37;7.57;;;;;;;;;;5073442;28;20374;-60
2021/09/15 00:27:33;;;;;;;7.93;7.30;;;;;;;;;;5072986;28;20247;-61
2021/09/15 00:29:59;;;;;;;8.63;7.83;;;;;;;;;;5073575;28;20225;-61
2021/09/15 00:32:24;;;;;;;8.00;7.23;;;;;;;;;;5073503;28;20315;-59
2021/09/15 00:34:49;;;;;;;8.77;7.87;;;;;;;;;;5073004;28;20220;-61
2021/09/15 00:37:14;;;;;;;8.60;7.80;;;;;;;;;;5055599;28;20676;-60
2021/09/15 00:39:40;;;;;;;8.40;7.60;;;;;;;;;;5073001;28;20224;-60
2021/09/15 00:42:05;;;;;;;10.60;7.40;;;;;;;;;;5073473;28;20228;-61
2021/09/15 00:44:30;;;;;;;7.97;7.17;;;;;;;;;;5072907;28;20551;-60
2021/09/15 00:46:56;;;;;;;8.70;7.90;;;;;;;;;;5073463;28;20548;-60
2021/09/15 00:49:21;;;;;;;8.13;7.33;;;;;;;;;;5073392;28;20549;-60
2021/09/15 00:51:46;;;;;;;8.17;7.47;;;;;;;;;;5073185;28;20235;-60
2021/09/15 00:54:15;;;;;;;8.97;8.07;;;;;;;;;;5073468;28;20262;-60
2021/09/15 00:56:40;;;;;;;9.23;8.53;;;;;;;;;;5072762;28;20316;-60
2021/09/15 00:59:06;;;;;;;8.53;7.70;;;;;;;;;;5073389;28;20765;-60
2021/09/15 01:01:31;;;;;;;9.37;8.53;;;;;;;;;;5074143;28;20258;-60
2021/09/15 01:03:56;;;;;;;9.33;8.40;;;;;;;;;;5076638;28;20672;-59
2021/09/15 01:06:22;;;;;;;9.87;8.60;;;;;;;;;;5076757;28;20675;-60
2021/09/15 01:08:48;;;;;;;10.43;9.53;;;;;;;;;;5076449;28;20305;-60
2021/09/15 01:11:14;;;;;;;8.37;7.67;;;;;;;;;;5076432;28;20727;-60
2021/09/15 01:13:40;;;;;;;8.57;7.77;;;;;;;;;;5076282;28;20217;-61
2021/09/15 01:16:05;;;;;;;8.17;7.47;;;;;;;;;;5076391;28;20787;-59
2021/09/15 01:18:31;;;;;;;9.40;8.60;;;;;;;;;;5076182;28;20297;-61
2021/09/15 01:20:56;;;;;;;8.70;8.00;;;;;;;;;;5076282;28;20248;-60
2021/09/15 01:23:21;;;;;;;8.80;7.93;;;;;;;;;;5076717;28;20291;-60
2021/09/15 01:25:46;;;;;;;9.53;8.47;;;;;;;;;;5076182;28;20211;-61
2021/09/15 01:28:12;;;;;;;10.40;9.53;;;;;;;;;;5076447;28;20274;-61
2021/09/15 01:30:38;;;;;;;9.67;8.77;;;;;;;;;;5075758;28;20663;-60
2021/09/15 01:33:04;;;;;;;9.47;8.40;;;;;;;;;;5076346;28;20216;-60
2021/09/15 01:35:29;;;;;;;9.93;9.03;;;;;;;;;;5075710;28;20803;-61
2021/09/15 01:37:54;;;;;;;10.60;9.50;;;;;;;;;;5076445;28;20644;-60
2021/09/15 01:40:20;;;;;;;9.40;8.60;;;;;;;;;;5076111;28;20219;-60
2021/09/15 01:42:45;;;;;;;9.13;8.43;;;;;;;;;;5075930;28;20212;-61
2021/09/15 01:45:11;;;;;;;9.03;8.13;;;;;;;;;;5076264;28;20219;-59
2021/09/15 01:47:37;;;;;;;9.63;8.83;;;;;;;;;;5075901;28;20297;-60
2021/09/15 01:50:04;;;;;;;9.23;8.43;;;;;;;;;;5058289;28;20517;-61
2021/09/15 01:52:30;;;;;;;10.93;8.50;;;;;;;;;;5075620;28;21012;-60
2021/09/15 01:54:55;;;;;;;9.70;8.90;;;;;;;;;;5075842;28;20459;-60
2021/09/15 01:57:20;;;;;;;10.27;9.27;;;;;;;;;;5075587;28;20638;-61
2021/09/15 01:59:45;;;;;;;10.90;10.00;;;;;;;;;;5075177;28;20225;-59
2021/09/15 02:02:11;;;;;;;9.90;9.10;;;;;;;;;;5075557;28;20299;-61
2021/09/15 02:04:37;;;;;;;10.87;9.93;;;;;;;;;;5075374;28;20220;-60
2021/09/15 02:07:03;;;;;;;10.50;9.70;;;;;;;;;;5075581;28;20216;-60
2021/09/15 02:09:28;;;;;;;10.07;9.20;;;;;;;;;;5075594;28;20463;-60
2021/09/15 02:11:53;;;;;;;16.63;9.50;;;;;;;;;;5075250;28;20212;-60
2021/09/15 02:14:19;;;;;;;9.70;8.90;;;;;;;;;;5074827;28;20216;-60
2021/09/15 02:16:44;;;;;;;11.97;10.30;;;;;;;;;;5074813;28;20259;-60
2021/09/15 02:19:10;;;;;;;10.53;9.60;;;;;;;;;;5075350;28;20308;-60
2021/09/15 02:21:35;;;;;;;9.53;8.73;;;;;;;;;;5074638;28;20676;-60
2021/09/15 02:24:01;;;;;;;10.70;9.70;;;;;;;;;;5075201;28;20615;-60
2021/09/15 02:26:26;;;;;;;10.67;9.60;;;;;;;;;;5075217;28;20224;-61
2021/09/15 02:28:51;;;;;;;11.50;10.27;;;;;;;;;;5074752;28;20386;-60
2021/09/15 02:31:17;;;;;;;10.33;9.43;;;;;;;;;;5057751;28;20312;-60
2021/09/15 02:33:42;;;;;;;11.00;10.10;;;;;;;;;;5074586;28;20212;-60
2021/09/15 02:36:08;;;;;;;11.40;10.30;;;;;;;;;;5074909;28;20224;-60
2021/09/15 02:38:33;;;;;;;10.23;9.33;;;;;;;;;;5074767;28;20216;-60
2021/09/15 02:40:58;;;;;;;10.20;9.17;;;;;;;;;;5074729;28;20299;-60
2021/09/15 02:43:23;;;;;;;12.37;11.23;;;;;;;;;;5075054;28;20571;-60
2021/09/15 02:45:49;;;;;;;11.20;10.20;;;;;;;;;;5056725;28;20291;-61
2021/09/15 02:48:14;;;;;;;11.20;10.30;;;;;;;;;;5074967;28;20745;-59
2021/09/15 02:50:39;;;;;;;11.67;10.63;;;;;;;;;;5074379;28;20220;-60
2021/09/15 02:53:04;;;;;;;11.83;10.87;;;;;;;;;;5074785;28;20289;-60
2021/09/15 02:55:30;;;;;;;10.67;9.87;;;;;;;;;;5074709;28;20640;-59
2021/09/15 02:57:55;;;;;;;11.80;10.70;;;;;;;;;;5074602;28;20216;-61
2021/09/15 03:00:20;;;;;;;12.10;10.90;;;;;;;;;;5074411;28;20254;-60
2021/09/15 03:02:46;;;;;;;12.57;11.63;;;;;;;;;;5073958;28;20220;-60
2021/09/15 03:05:11;;;;;;;13.67;11.53;;;;;;;;;;5074481;28;20242;-60
2021/09/15 03:07:37;;;;;;;11.67;10.57;;;;;;;;;;5074079;28;20236;-60
2021/09/15 03:10:04;;;;;;;10.93;10.03;;;;;;;;;;5074377;28;20224;-59
2021/09/15 03:12:29;;;;;;;11.90;10.80;;;;;;;;;;5074561;28;20289;-60
2021/09/15 03:14:55;;;;;;;12.37;11.17;;;;;;;;;;5073853;28;20922;-60
2021/09/15 03:17:20;;;;;;;12.17;11.07;;;;;;;;;;5056822;28;20231;-60
2021/09/15 03:19:45;;;;;;;12.03;10.87;;;;;;;;;;5073618;28;20217;-60
2021/09/15 03:22:11;;;;;;;11.80;10.70;;;;;;;;;;5074233;28;20227;-60
2021/09/15 03:24:36;;;;;;;11.30;10.20;;;;;;;;;;5073570;28;20479;-61
2021/09/15 03:27:03;;;;;;;12.53;11.47;;;;;;;;;;5074258;28;20223;-60
2021/09/15 03:29:30;;;;;;;11.67;10.67;;;;;;;;;;5073825;28;20223;-60
2021/09/15 03:31:55;;;;;;;12.67;11.47;;;;;;;;;;5073456;28;20466;-60
2021/09/15 03:34:21;;;;;;;12.17;11.00;;;;;;;;;;5073819;28;20496;-60
2021/09/15 03:36:46;;;;;;;12.53;11.23;;;;;;;;;;5073547;28;20225;-61
2021/09/15 03:39:14;;;;;;;11.80;10.80;;;;;;;;;;5074063;28;20227;-59
2021/09/15 03:41:39;;;;;;;12.50;11.20;;;;;;;;;;5073619;28;20244;-61
2021/09/15 03:44:04;;;;;;;12.27;11.30;;;;;;;;;;5074005;28;20631;-60
2021/09/15 03:46:29;;;;;;;12.33;11.33;;;;;;;;;;5074113;28;20220;-60
2021/09/15 03:48:55;;;;;;;13.20;11.40;;;;;;;;;;5073674;28;20329;-60
2021/09/15 03:51:20;;;;;;;14.10;12.77;;;;;;;;;;5073749;28;20220;-60
2021/09/15 03:53:45;;;;;;;12.40;11.27;;;;;;;;;;5073576;28;20212;-61
2021/09/15 03:56:10;;;;;;;12.83;11.73;;;;;;;;;;5073670;28;20651;-59
2021/09/15 03:58:36;;;;;;;12.47;11.27;;;;;;;;;;5073995;28;20227;-60
2021/09/15 04:01:01;;;;;;;12.17;11.17;;;;;;;;;;5055597;28;20315;-60
2021/09/15 04:03:26;;;;;;;12.30;11.20;;;;;;;;;;5056099;28;20209;-60
2021/09/15 04:05:51;;;;;;;14.17;12.87;;;;;;;;;;5055918;28;20530;-60
2021/09/15 04:08:17;;;;;;;13.03;11.90;;;;;;;;;;5073828;28;20307;-59
2021/09/15 04:10:42;;;;;;;12.73;11.33;;;;;;;;;;5073343;28;20697;-60
2021/09/15 04:13:07;;;;;;;12.83;11.63;;;;;;;;;;5073549;28;20307;-60
2021/09/15 04:15:33;;;;;;;13.30;12.00;;;;;;;;;;5073646;28;20213;-60
2021/09/15 04:17:58;;;;;;;13.23;12.03;;;;;;;;;;5073273;28;21212;-60
2021/09/15 04:20:23;;;;;;;12.10;10.90;;;;;;;;;;5073324;28;20248;-60
2021/09/15 04:22:49;;;;;;;13.60;12.50;;;;;;;;;;5073455;28;20227;-60
2021/09/15 04:33:26;;;;;;;14.50;13.27;;;;;;;;;;5073436;28;20462;-60
2021/09/15 04:35:51;;;;;;;13.47;12.27;;;;;;;;;;5073429;28;20942;-60
2021/09/15 04:38:16;;;;;;;13.40;12.30;;;;;;;;;;5077407;28;20307;-60
2021/09/15 04:40:42;;;;;;;12.50;11.40;;;;;;;;;;5076587;28;20679;-61
2021/09/15 04:43:07;;;;;;;13.33;12.03;;;;;;;;;;5076979;28;20303;-61
2021/09/15 04:45:32;;;;;;;13.47;12.20;;;;;;;;;;5077006;28;20230;-61
2021/09/15 04:47:57;;;;;;;13.03;11.83;;;;;;;;;;5076654;28;20232;-61
2021/09/15 04:50:23;;;;;;;14.20;12.87;;;;;;;;;;5077006;28;20304;-60
2021/09/15 04:52:48;;;;;;;15.00;13.80;;;;;;;;;;5076643;28;20228;-61
2021/09/15 04:55:13;;;;;;;12.13;10.93;;;;;;;;;;5077168;28;20553;-61
2021/09/15 04:57:38;;;;;;;13.57;12.27;;;;;;;;;;5077031;28;20227;-62
2021/09/15 05:00:04;;;;;;;14.47;12.93;;;;;;;;;;5076517;28;20236;-61
2021/09/15 05:02:29;;;;;;;12.83;11.73;;;;;;;;;;5076710;28;20217;-62
2021/09/15 05:04:55;;;;;;;13.93;12.67;;;;;;;;;;5076485;28;20216;-61
2021/09/15 05:07:20;;;;;;;14.10;12.90;;;;;;;;;;5075241;28;20311;-62
2021/09/15 05:09:45;;;;;;;14.77;13.53;;;;;;;;;;5086112;28;20216;-62
2021/09/15 05:12:10;;;;;;;13.70;12.40;;;;;;;;;;5087974;28;20270;-61
2021/09/15 05:14:36;;;;;;;13.57;12.37;;;;;;;;;;5082902;28;20220;-61
2021/09/15 05:17:01;;;;;;;14.70;12.57;;;;;;;;;;5096137;28;20236;-60
2021/09/15 05:19:26;;;;;;;13.33;12.20;;;;;;;;;;5082973;28;20644;-61
2021/09/15 05:21:52;;;;;;;13.27;12.10;;;;;;;;;;5088578;28;20231;-60
2021/09/15 05:24:17;;;;;;;13.73;12.33;;;;;;;;;;5081249;28;20240;-60
2021/09/15 05:26:42;;;;;;;12.60;11.50;;;;;;;;;;5071779;28;20220;-61
2021/09/15 05:29:07;;;;;;;13.50;12.43;;;;;;;;;;5089740;28;20738;-61
2021/09/15 05:31:33;;;;;;;14.10;12.90;;;;;;;;;;5069574;28;20230;-61
2021/09/15 05:33:58;;;;;;;15.50;14.10;;;;;;;;;;5081973;28;20274;-61
2021/09/15 05:36:23;;;;;;;14.73;13.33;;;;;;;;;;5054901;28;20235;-62
2021/09/15 05:38:48;;;;;;;13.50;12.33;;;;;;;;;;5070965;28;20246;-62
2021/09/15 05:41:14;;;;;;;12.80;11.80;;;;;;;;;;5082132;28;20307;-62
2021/09/15 05:43:39;;;;;;;14.53;13.07;;;;;;;;;;5096271;28;20232;-62
2021/09/15 05:46:04;;;;;;;16.87;12.80;;;;;;;;;;5081920;28;20231;-61
2021/09/15 05:48:29;;;;;;;14.93;13.43;;;;;;;;;;5083668;28;20236;-61
2021/09/15 05:50:55;;;;;;;12.63;11.63;;;;;;;;;;5088948;28;20224;-61
2021/09/15 05:53:20;;;;;;;14.40;13.10;;;;;;;;;;5087768;28;20299;-62
2021/09/15 05:55:45;;;;;;;14.73;13.23;;;;;;;;;;5081793;28;20567;-62
2021/09/15 05:58:11;;;;;;;16.00;12.20;;;;;;;;;;5083896;28;20247;-61
2021/09/15 06:00:36;;;;;;;13.03;11.80;;;;;;;;;;5089070;28;20227;-61
2021/09/15 06:03:01;;;;;;;13.27;12.10;;;;;;;;;;5086678;28;20220;-61
2021/09/15 06:05:26;;;;;;;13.93;12.60;;;;;;;;;;5082492;28;20291;-62
2021/09/15 06:07:52;;;;;;;13.40;12.20;;;;;;;;;;5072692;28;20278;-61
2021/09/15 06:10:17;;;;;;;14.33;12.17;;;;;;;;;;5089140;28;20314;-61
2021/09/15 06:12:42;;;;;;;14.70;13.20;;;;;;;;;;5082484;28;20224;-61
2021/09/15 06:15:09;;;;;;;14.20;12.63;;;;;;;;;;5089722;28;20545;-62
2021/09/15 06:17:34;;;;;;;13.80;12.60;;;;;;;;;;5081846;28;20220;-62
2021/09/15 06:19:59;;;;;;;14.23;12.93;;;;;;;;;;5082229;28;20776;-62
2021/09/15 06:22:25;;;;;;;14.67;13.17;;;;;;;;;;5088629;28;20216;-60
2021/09/15 06:24:53;;;;;;;13.90;12.67;;;;;;;;;;5087850;28;20244;-61
2021/09/15 06:27:22;;;;;;;12.43;11.40;;;;;;;;;;5068604;28;20240;-62
2021/09/15 06:29:48;;;;;;;13.77;12.57;;;;;;;;;;5081097;28;20490;-61
2021/09/15 06:32:13;;;;;;;13.53;12.23;;;;;;;;;;5087847;28;20545;-62
2021/09/15 06:34:38;;;;;;;14.90;13.40;;;;;;;;;;5088080;28;20221;-62
2021/09/15 06:37:04;;;;;;;13.73;12.60;;;;;;;;;;5081766;28;20232;-62
2021/09/15 06:39:29;;;;;;;14.53;13.13;;;;;;;;;;5081223;28;20224;-62
2021/09/15 06:41:55;;;;;;;14.10;12.77;;;;;;;;;;5085515;28;20224;-62
2021/09/15 06:44:20;;;;;;;14.30;13.00;;;;;;;;;;5095274;28;20272;-62
2021/09/15 06:46:45;;;;;;;13.83;12.73;;;;;;;;;;5081544;28;20231;-62
2021/09/15 06:49:10;;;;;;;13.87;12.50;;;;;;;;;;5081221;28;20220;-62
2021/09/15 06:51:36;;;;;;;13.77;12.30;;;;;;;;;;5070326;28;20358;-62
2021/09/15 06:54:01;;;;;;;16.97;15.30;;;;;;;;;;5087311;28;20239;-63
2021/09/15 06:56:26;;;;;;;15.10;13.77;;;;;;;;;;5081038;28;20239;-62
2021/09/15 06:58:52;;;;;;;14.10;12.70;;;;;;;;;;5081006;28;20220;-62
2021/09/15 07:01:17;;;;;;;15.43;13.87;;;;;;;;;;5087909;28;20303;-61
2021/09/15 07:03:42;;;;;;;13.80;12.63;;;;;;;;;;5069278;28;20239;-61
2021/09/15 07:06:08;;;;;;;13.77;12.50;;;;;;;;;;5080528;28;20224;-61
2021/09/15 07:08:33;;;;;;;13.00;11.90;;;;;;;;;;5082183;28;20235;-61
2021/09/15 07:10:58;;;;;;;12.53;11.23;;;;;;;;;;5069540;28;20239;-62
2021/09/15 07:13:24;;;;;;;12.97;11.67;;;;;;;;;;5085798;28;20593;-62
2021/09/15 07:15:49;;;;;;;13.77;12.37;;;;;;;;;;5062974;28;20316;-62
2021/09/15 07:18:14;;;;;;;14.53;12.87;;;;;;;;;;5065113;28;20220;-62
2021/09/15 07:20:40;;;;;;;13.00;11.97;;;;;;;;;;5087446;28;20547;-62
2021/09/15 07:23:06;;;;;;;13.90;12.60;;;;;;;;;;5085153;28;20329;-61
2021/09/15 07:25:31;;;;;;;11.83;10.73;;;;;;;;;;5089551;28;20629;-61
2021/09/15 07:27:56;;;;;;;13.70;12.33;;;;;;;;;;5083944;28;20227;-62
2021/09/15 07:30:22;;;;;;;11.77;10.77;;;;;;;;;;5080784;28;20248;-61
2021/09/15 07:32:47;;;;;;;13.33;12.23;;;;;;;;;;5083768;28;20525;-61
2021/09/15 07:35:13;;;;;;;13.90;12.70;;;;;;;;;;5086913;28;20216;-61
2021/09/15 07:37:39;;;;;;;13.50;12.30;;;;;;;;;;5083773;28;20272;-61
2021/09/15 07:40:06;;;;;;;12.80;11.60;;;;;;;;;;5080097;28;20238;-63
2021/09/15 07:42:31;;;;;;;12.27;11.03;;;;;;;;;;5084071;28;20482;-61
2021/09/15 07:44:57;;;;;;;12.57;11.40;;;;;;;;;;5086674;28;20466;-62
2021/09/15 07:47:22;;;;;;;12.10;11.10;;;;;;;;;;5083678;28;20224;-62
2021/09/15 07:49:49;;;;;;;12.00;11.00;;;;;;;;;;5080187;28;20569;-62
2021/09/15 07:52:14;;;;;;;12.33;11.30;;;;;;;;;;5083593;28;20228;-61
2021/09/15 07:54:40;;;;;;;13.33;12.13;;;;;;;;;;5087326;28;20847;-62
2021/09/15 07:57:05;;;;;;;12.10;11.00;;;;;;;;;;5083019;28;20310;-61
2021/09/15 07:59:30;;;;;;;12.27;11.27;;;;;;;;;;5080072;28;20655;-61
2021/09/15 08:01:55;;;;;;;11.80;10.67;;;;;;;;;;5093035;28;20226;-62
2021/09/15 08:04:21;;;;;;;12.93;11.73;;;;;;;;;;5080279;28;20220;-62
2021/09/15 08:06:46;;;;;;;11.43;10.43;;;;;;;;;;5084339;28;20663;-62
2021/09/15 08:09:11;;;;;;;12.17;10.97;;;;;;;;;;5075823;28;20211;-62
2021/09/15 08:11:36;;;;;;;12.27;10.97;;;;;;;;;;5085944;28;20240;-62
2021/09/15 08:14:02;;;;;;;11.37;10.30;;;;;;;;;;5090745;28;20224;-62
2021/09/15 08:16:27;;;;;;;15.27;11.23;;;;;;;;;;5087122;28;20255;-62
2021/09/15 08:18:52;;;;;;;12.50;11.20;;;;;;;;;;5084141;28;20679;-62
2021/09/15 08:21:18;;;;;;;13.13;12.00;;;;;;;;;;5088089;28;20311;-61
2021/09/15 08:23:43;;;;;;;11.83;10.83;;;;;;;;;;5073475;28;20219;-62
2021/09/15 08:26:09;;;;;;;10.60;9.60;;;;;;;;;;5085938;28;20294;-62
2021/09/15 08:28:36;;;;;;;13.33;11.30;;;;;;;;;;5084080;28;20208;-61
2021/09/15 08:31:03;;;;;;;13.13;11.80;;;;;;;;;;5088050;28;20601;-62
2021/09/15 08:33:28;;;;;;;12.93;11.57;;;;;;;;;;5091047;28;20457;-61
2021/09/15 08:35:53;;;;;;;13.17;10.43;;;;;;;;;;5086005;28;20580;-62
2021/09/15 08:38:19;;;;;;;11.27;10.27;;;;;;;;;;5083138;28;20228;-61
2021/09/15 08:40:44;;;;;;;11.57;10.67;;;;;;;;;;5089388;28;20332;-62
2021/09/15 08:43:09;;;;;;;10.90;10.00;;;;;;;;;;5090561;28;20224;-62
2021/09/15 08:45:35;;;;;;;12.87;10.33;;;;;;;;;;5084977;28;20216;-62
2021/09/15 08:48:01;;;;;;;13.70;12.30;;;;;;;;;;5083240;28;20637;-61
2021/09/15 08:50:27;;;;;;;11.03;10.03;;;;;;;;;;5089686;28;20282;-62
2021/09/15 08:52:52;;;;;;;10.33;9.43;;;;;;;;;;5090378;28;20513;-62
2021/09/15 08:55:17;;;;;;;10.20;9.23;;;;;;;;;;5084247;28;20219;-61
2021/09/15 08:57:43;;;;;;;10.90;10.00;;;;;;;;;;5083362;28;20690;-61
2021/09/15 09:00:11;;;;;;;11.07;10.07;;;;;;;;;;5089585;28;20228;-62
2021/09/15 09:02:38;;;;;;;12.20;10.90;;;;;;;;;;5090394;28;20216;-62
2021/09/15 09:05:03;;;;;;;10.27;9.33;;;;;;;;;;5083791;28;20785;-61
2021/09/15 09:07:30;;;;;;;11.10;10.10;;;;;;;;;;5082998;28;20451;-62
2021/09/15 09:09:58;;;;;;;10.20;9.40;;;;;;;;;;5085957;28;20228;-62
2021/09/15 09:12:25;;;;;;;11.43;10.43;;;;;;;;;;5082951;28;20453;-62
2021/09/15 09:14:52;;;;;;;10.60;9.80;;;;;;;;;;5086772;28;20785;-62
2021/09/15 09:17:32;;;;;;;11.77;10.70;;;;;;;;;;5090294;28;20545;-62
2021/09/15 09:20:28;;;;;;;10.73;9.73;;;;;;;;;;5086594;28;20477;-62
2021/09/15 09:23:13;;;;;;;9.83;8.93;;;;;;;;;;5071428;28;20472;-61
2021/09/15 09:25:51;;;;;;;10.90;10.10;;;;;;;;;;5082810;28;20472;-61
2021/09/15 09:28:26;;;;;;;10.90;10.00;;;;;;;;;;5084219;28;20498;-61
2021/09/15 09:30:53;;;;;;;12.57;11.47;;;;;;;;;;5052012;28;20454;-61
2021/09/15 09:33:19;;;;;;;12.20;10.70;;;;;;;;;;5082738;28;20474;-62
2021/09/15 09:35:50;;;;;;;11.63;10.63;;;;;;;;;;5088743;28;20838;-63
2021/09/15 09:38:29;;;;;;;9.57;8.90;;;;;;;;;;5089640;28;20789;-62
2021/09/15 09:41:12;;;;;;;9.83;8.93;;;;;;;;;;5085609;28;20457;-61
2021/09/15 09:43:39;;;;;;;10.10;9.17;;;;;;;;;;5081857;28;20497;-61
2021/09/15 09:46:06;;;;;;;13.70;12.40;;;;;;;;;;5084109;28;20459;-62
2021/09/15 09:48:33;;;;;;;13.57;11.53;;;;;;;;;;5071198;28;20466;-62
2021/09/15 09:51:00;;;;;;;11.77;9.90;;;;;;;;;;5088607;28;20553;-63
2021/09/15 09:53:26;;;;;;;10.57;9.53;;;;;;;;;;5082337;28;20462;-62
2021/09/15 09:55:54;;;;;;;11.20;10.00;;;;;;;;;;5082852;28;20627;-62
2021/09/15 09:58:22;;;;;;;10.73;9.83;;;;;;;;;;5071610;28;20931;-62
2021/09/15 10:00:48;;;;;;;11.10;10.20;;;;;;;;;;5088362;28;20805;-63
2021/09/15 10:03:13;;;;;;;11.00;9.90;;;;;;;;;;5064452;28;20457;-64
2021/09/15 10:05:39;;;;;;;12.13;10.60;;;;;;;;;;5064931;28;20216;-64
2021/09/15 10:08:06;;;;;;;11.30;10.30;;;;;;;;;;5087603;28;20731;-63
2021/09/15 10:10:31;;;;;;;11.50;10.40;;;;;;;;;;5088774;28;20232;-64
2021/09/15 10:12:57;;;;;;;12.47;10.70;;;;;;;;;;5082201;28;20552;-64
2021/09/15 10:15:23;;;;;;;11.80;10.90;;;;;;;;;;5081677;28;20224;-63
2021/09/15 10:17:51;;;;;;;11.03;9.43;;;;;;;;;;5063903;28;20227;-63
2021/09/15 10:20:22;;;;;;;10.93;9.30;;;;;;;;;;5064136;28;20783;-63
2021/09/15 10:22:49;;;;;;;10.53;9.63;;;;;;;;;;5051302;28;20565;-62
2021/09/15 10:25:15;;;;;;;10.90;9.90;;;;;;;;;;5081471;28;20483;-64
2021/09/15 10:27:57;;;;;;;10.70;9.60;;;;;;;;;;5087996;28;20463;-63
2021/09/15 10:30:22;;;;;;;11.43;10.33;;;;;;;;;;5088299;28;20454;-63
2021/09/15 10:32:49;;;;;;;11.93;10.83;;;;;;;;;;5083897;28;20531;-63
2021/09/15 10:35:15;;;;;;;11.60;10.60;;;;;;;;;;5080626;28;20598;-62
2021/09/15 10:37:40;;;;;;;10.27;9.37;;;;;;;;;;5067657;28;20810;-62
2021/09/15 10:40:10;;;;;;;11.63;10.10;;;;;;;;;;5084682;28;20478;-63
2021/09/15 10:42:36;;;;;;;10.10;9.20;;;;;;;;;;5084795;28;20212;-63
2021/09/15 10:45:14;;;;;;;9.60;8.70;;;;;;;;;;5088100;28;20461;-63
2021/09/15 10:47:53;;;;;;;9.60;8.80;;;;;;;;;;5085662;28;20215;-63
2021/09/15 10:50:28;;;;;;;10.00;9.20;;;;;;;;;;5080887;28;20461;-63
2021/09/15 10:53:03;;;;;;;9.50;8.70;;;;;;;;;;5080730;28;20461;-63
2021/09/15 10:55:46;;;;;;;9.90;9.00;;;;;;;;;;5085436;28;20446;-63
2021/09/15 10:58:12;;;;;;;10.17;9.10;;;;;;;;;;5087785;28;20969;-65
2021/09/15 11:00:51;;;;;;;9.47;8.77;;;;;;;;;;5085364;28;20891;-64
2021/09/15 11:03:32;;;;;;;10.60;9.50;;;;;;;;;;5080695;28;20864;-65
2021/09/15 11:06:07;;;;;;;9.90;8.87;;;;;;;;;;5080874;28;20938;-63
2021/09/15 11:08:39;;;;;;;10.23;9.30;;;;;;;;;;5071577;28;20931;-64
2021/09/15 11:11:10;;;;;;;8.70;7.90;;;;;;;;;;5086513;28;20470;-63
2021/09/15 11:13:36;;;;;;;9.13;8.33;;;;;;;;;;5086838;28;20446;-63
2021/09/15 11:16:22;;;;;;;9.77;8.87;;;;;;;;;;5080643;28;20531;-63
2021/09/15 11:18:56;;;;;;;12.50;7.90;;;;;;;;;;5062763;28;20216;-64
2021/09/15 11:21:22;;;;;;;9.47;8.43;;;;;;;;;;5084345;28;20470;-65
2021/09/15 11:23:54;;;;;;;9.27;8.50;;;;;;;;;;5082124;28;20524;-62
2021/09/15 11:26:44;;;;;;;11.43;8.20;;;;;;;;;;5072415;28;20215;-63
2021/09/15 11:29:09;;;;;;;9.53;8.63;;;;;;;;;;5071389;28;20463;-62
2021/09/15 11:31:38;;;;;;;9.27;8.33;;;;;;;;;;5054140;28;20453;-63
2021/09/15 11:34:14;;;;;;;10.63;9.53;;;;;;;;;;5071856;28;20280;-63
2021/09/15 11:36:46;;;;;;;12.23;11.07;;;;;;;;;;5071801;28;20466;-63
2021/09/15 11:39:16;;;;;;;13.63;12.53;;;;;;;;;;5073565;28;20443;-63
2021/09/15 11:41:41;;;;;;;11.77;10.67;;;;;;;;;;5073939;28;20454;-62
2021/09/15 11:44:07;;;;;;;13.67;11.97;;;;;;;;;;5073739;28;20783;-63
2021/09/15 11:46:35;;;;;;;13.10;12.00;;;;;;;;;;5073817;28;20296;-64
2021/09/15 11:49:00;;;;;;;13.63;10.20;;;;;;;;;;5073688;28;20212;-62
2021/09/15 11:51:26;;;;;;;11.10;9.97;;;;;;;;;;5074098;28;20572;-63
2021/09/15 11:54:02;;;;;;;12.90;11.70;;;;;;;;;;5073305;28;20216;-63
2021/09/15 11:56:32;;;;;;;11.40;10.30;;;;;;;;;;5073794;28;20228;-63
2021/09/15 11:58:58;;;;;;;12.43;9.80;;;;;;;;;;5073439;28;20779;-63
2021/09/15 12:01:25;;;;;;;10.93;9.83;;;;;;;;;;5073822;28;20530;-63
2021/09/15 12:03:51;;;;;;;12.17;10.27;;;;;;;;;;5055977;28;20496;-63
2021/09/15 12:06:16;;;;;;;10.90;9.70;;;;;;;;;;5073803;28;20531;-63
2021/09/15 12:08:41;;;;;;;15.67;13.60;;;;;;;;;;5073663;28;20447;-63
2021/09/15 12:11:08;;;;;;;10.50;9.60;;;;;;;;;;5073266;28;20228;-63
2021/09/15 12:13:34;;;;;;;10.20;9.50;;;;;;;;;;5073686;28;20208;-63
2021/09/15 12:16:00;;;;;;;10.73;9.73;;;;;;;;;;5073096;28;20554;-63
2021/09/15 12:18:47;;;;;;;10.23;8.40;;;;;;;;;;5073851;28;20451;-63
2021/09/15 12:21:18;;;;;;;10.47;9.63;;;;;;;;;;5073052;28;20450;-63
2021/09/15 12:23:44;;;;;;;10.93;9.97;;;;;;;;;;5073553;28;20455;-62
2021/09/15 12:26:09;;;;;;;10.53;9.57;;;;;;;;;;5073218;28;22182;-63
2021/09/15 12:28:35;;;;;;;9.10;8.27;;;;;;;;;;5056111;28;20216;-62
2021/09/15 12:31:01;;;;;;;10.50;9.43;;;;;;;;;;5073210;28;20247;-62
2021/09/15 12:33:28;;;;;;;9.87;9.03;;;;;;;;;;5073847;28;20538;-63
2021/09/15 12:36:08;;;;;;;9.90;9.20;;;;;;;;;;5073245;28;20486;-63
2021/09/15 12:38:44;;;;;;;10.00;9.20;;;;;;;;;;5073467;28;20458;-63
2021/09/15 12:41:09;;;;;;;10.33;9.37;;;;;;;;;;5073003;28;20459;-63
2021/09/15 12:43:35;;;;;;;10.57;9.60;;;;;;;;;;5073287;28;21012;-63
2021/09/15 12:46:00;;;;;;;13.27;10.10;;;;;;;;;;5055142;28;20240;-64
2021/09/15 12:48:25;;;;;;;9.00;8.30;;;;;;;;;;5055938;28;20281;-63
2021/09/15 12:50:51;;;;;;;9.10;8.30;;;;;;;;;;5072933;28;20209;-63
2021/09/15 12:53:16;;;;;;;9.03;8.23;;;;;;;;;;5073415;28;20262;-63
2021/09/15 12:55:51;;;;;;;8.63;7.93;;;;;;;;;;5073429;28;20548;-63
2021/09/15 12:58:27;;;;;;;8.30;7.60;;;;;;;;;;5075811;28;20212;-64
2021/09/15 13:00:53;;;;;;;11.13;7.77;;;;;;;;;;5076449;28;20498;-63
2021/09/15 13:03:18;;;;;;;8.33;7.63;;;;;;;;;;5077276;28;20470;-63
2021/09/15 13:05:46;;;;;;;8.40;7.60;;;;;;;;;;5076940;28;20213;-63
2021/09/15 13:08:26;;;;;;;8.10;7.10;;;;;;;;;;5076523;28;20224;-63
2021/09/15 13:10:54;;;;;;;8.27;7.47;;;;;;;;;;5076860;28;20446;-63
2021/09/15 13:13:22;;;;;;;9.23;8.40;;;;;;;;;;5076643;28;20443;-63
2021/09/15 13:15:48;;;;;;;22.30;10.27;;;;;;;;;;5076565;28;20462;-63
2021/09/15 13:18:14;;;;;;;87.73;16.50;;;;;;;;;;5076279;28;20465;-64
2021/09/15 13:20:40;;;;;;;18.13;12.07;;;;;;;;;;5058925;28;20783;-65
2021/09/15 13:23:05;;;;;;;30.60;17.27;;;;;;;;;;5076031;28;20547;-65
2021/09/15 13:25:30;;;;;;;22.70;13.67;;;;;;;;;;5076546;28;20212;-64
2021/09/15 13:27:55;;;;;;;32.33;17.00;;;;;;;;;;5076616;28;20299;-64
2021/09/15 13:30:21;;;;;;;49.33;21.50;;;;;;;;;;5075570;28;20259;-64
2021/09/15 13:32:46;;;;;;;32.97;18.07;;;;;;;;;;5076693;28;20209;-65
2021/09/15 13:35:13;;;;;;;27.40;16.47;;;;;;;;;;5067173;28;20669;-63
2021/09/15 13:37:38;;;;;;;52.93;21.03;;;;;;;;;;5076096;28;20216;-63
2021/09/15 13:40:05;;;;;;;43.80;20.50;;;;;;;;;;5058290;28;20618;-63
2021/09/15 13:42:31;;;;;;;40.83;19.83;;;;;;;;;;5075933;28;20227;-62
2021/09/15 13:44:56;;;;;;;25.27;16.97;;;;;;;;;;5076516;28;20813;-63
2021/09/15 13:47:22;;;;;;;30.53;18.40;;;;;;;;;;5075546;28;20212;-63
2021/09/15 13:49:47;;;;;;;42.77;21.77;;;;;;;;;;5076272;28;20216;-62
2021/09/15 13:52:13;;;;;;;30.47;16.20;;;;;;;;;;5075763;28;20278;-63
2021/09/15 13:54:44;;;;;;;27.87;17.70;;;;;;;;;;5076270;28;20291;-62
2021/09/15 13:57:10;;;;;;;14.17;10.63;;;;;;;;;;5075362;28;20521;-63
2021/09/15 13:59:35;;;;;;;16.23;12.20;;;;;;;;;;5075641;28;20455;-62
2021/09/15 14:02:01;;;;;;;35.20;16.57;;;;;;;;;;5075801;28;20459;-62
2021/09/15 14:04:26;;;;;;;34.03;15.20;;;;;;;;;;5075461;28;20209;-62
2021/09/15 14:06:52;;;;;;;23.40;12.50;;;;;;;;;;5057923;28;20204;-62
2021/09/15 14:09:17;;;;;;;41.67;18.70;;;;;;;;;;5057756;28;20213;-62
2021/09/15 14:11:42;;;;;;;26.83;13.77;;;;;;;;;;5075571;28;20538;-62
2021/09/15 14:14:08;;;;;;;37.20;16.17;;;;;;;;;;5075212;28;20216;-63
2021/09/15 14:16:33;;;;;;;27.60;14.53;;;;;;;;;;5075494;28;20639;-62
2021/09/15 14:19:16;;;;;;;42.07;17.93;;;;;;;;;;5075504;28;20223;-64
2021/09/15 14:21:42;;;;;;;21.47;13.27;;;;;;;;;;5074733;28;21614;-65
2021/09/15 14:24:08;;;;;;;19.57;13.07;;;;;;;;;;5075056;28;20450;-64
2021/09/15 14:26:34;;;;;;;14.53;11.80;;;;;;;;;;5057874;28;20568;-64
2021/09/15 14:29:00;;;;;;;30.40;15.80;;;;;;;;;;5074771;28;20456;-64